createdAt,value
2022-08-08T00:00:56.638Z,13.34
2022-08-08T00:03:31.684Z,13.31
2022-08-08T00:07:13.140Z,13.38
2022-08-08T00:10:16.963Z,13.42
2022-08-08T00:14:15.234Z,13.51
2022-08-08T00:17:23.186Z,13.61
2022-08-08T00:20:50.469Z,13.51
2022-08-08T00:23:54.403Z,13.57
2022-08-08T00:27:01.830Z,13.62
2022-08-08T00:30:11.271Z,13.70
2022-08-08T00:33:24.065Z,13.71
2022-08-08T00:36:34.988Z,13.73
2022-08-08T00:41:13.012Z,13.78
2022-08-08T00:43:40.218Z,13.69
2022-08-08T00:47:24.736Z,13.81
2022-08-08T00:50:48.217Z,13.77
2022-08-08T00:54:13.333Z,13.79
2022-08-08T00:57:40.801Z,13.78
2022-08-08T01:01:29.361Z,13.73
2022-08-08T01:05:29.291Z,13.67
2022-08-08T01:09:34.816Z,13.64
2022-08-08T01:13:43.298Z,13.57
2022-08-08T01:17:44.860Z,13.45
2022-08-08T01:22:03.817Z,13.41
2022-08-08T01:25:26.254Z,13.41
2022-08-08T01:28:59.303Z,13.38
2022-08-08T01:32:24.850Z,13.34
2022-08-08T01:36:01.156Z,13.30
2022-08-08T01:39:24.241Z,13.31
2022-08-08T01:42:49.951Z,13.33
2022-08-08T01:46:18.907Z,13.35
2022-08-08T01:49:45.907Z,13.36
2022-08-08T01:55:17.675Z,13.40
2022-08-08T01:57:24.275Z,13.47
2022-08-08T02:00:36.260Z,13.52
2022-08-08T02:03:55.624Z,13.52
2022-08-08T02:07:16.630Z,13.54
2022-08-08T02:10:44.988Z,13.49
2022-08-08T02:14:34.431Z,13.43
2022-08-08T02:18:10.269Z,13.40
2022-08-08T02:21:42.932Z,13.36
2022-08-08T02:25:11.985Z,13.26
2022-08-08T02:28:26.163Z,13.23
2022-08-08T02:32:01.060Z,13.25
2022-08-08T02:36:05.207Z,13.17
2022-08-08T02:39:42.300Z,13.11
2022-08-08T02:44:34.986Z,13.04
2022-08-08T02:46:54.256Z,12.97
2022-08-08T02:50:20.900Z,13.00
2022-08-08T02:53:50.703Z,12.97
2022-08-08T02:57:17.250Z,12.95
2022-08-08T03:00:35.678Z,12.87
2022-08-08T03:05:04.548Z,12.80
2022-08-08T03:07:58.231Z,12.72
2022-08-08T03:11:47.628Z,12.76
2022-08-08T03:15:56.685Z,12.82
2022-08-08T03:18:33.223Z,12.78
2022-08-08T03:21:40.715Z,12.79
2022-08-08T03:24:57.808Z,12.86
2022-08-08T03:28:04.931Z,12.88
2022-08-08T03:31:30.389Z,12.82
2022-08-08T03:34:41.223Z,12.87
2022-08-08T03:38:53.755Z,12.91
2022-08-08T03:42:03.943Z,12.87
2022-08-08T03:44:32.902Z,12.82
2022-08-08T03:47:45.425Z,12.77
2022-08-08T03:50:50.273Z,12.76
2022-08-08T03:53:56.154Z,12.75
2022-08-08T03:56:59.856Z,12.76
2022-08-08T04:00:26.109Z,12.81
2022-08-08T04:03:59.860Z,12.79
2022-08-08T04:07:01.863Z,12.91
2022-08-08T04:10:11.104Z,12.96
2022-08-08T04:13:17.896Z,13.03
2022-08-08T04:16:38.325Z,13.00
2022-08-08T04:19:44.161Z,13.09
2022-08-08T04:22:51.615Z,13.18
2022-08-08T04:25:54.784Z,13.32
2022-08-08T04:28:57.445Z,13.36
2022-08-08T04:32:00.925Z,13.53
2022-08-08T04:35:06.347Z,13.66
2022-08-08T04:38:21.663Z,13.73
2022-08-08T04:41:25.105Z,13.87
2022-08-08T04:44:39.522Z,13.83
2022-08-08T04:47:46.248Z,13.91
2022-08-08T04:50:51.796Z,14.08
2022-08-08T04:54:38.186Z,14.09
2022-08-08T04:57:20.818Z,14.25
2022-08-08T05:00:25.223Z,14.31
2022-08-08T05:04:09.782Z,14.40
2022-08-08T05:06:52.145Z,14.54
2022-08-08T05:09:56.826Z,14.59
2022-08-08T05:13:02.614Z,14.74
2022-08-08T05:16:55.602Z,14.88
2022-08-08T05:20:12.632Z,14.93
2022-08-08T05:23:02.103Z,14.93
2022-08-08T05:26:07.004Z,15.13
2022-08-08T05:29:08.838Z,15.26
2022-08-08T05:32:13.079Z,15.14
2022-08-08T05:35:19.001Z,15.34
2022-08-08T05:38:32.003Z,15.53
2022-08-08T05:41:54.986Z,15.88
2022-08-08T05:45:10.358Z,16.17
2022-08-08T05:48:28.948Z,16.30
2022-08-08T05:51:48.235Z,16.29
2022-08-08T05:54:57.227Z,16.60
2022-08-08T05:58:17.292Z,16.83
2022-08-08T06:01:52.721Z,16.92
2022-08-08T06:04:54.404Z,16.83
2022-08-08T06:08:02.030Z,16.62
2022-08-08T06:11:06.711Z,16.25
2022-08-08T06:14:12.825Z,16.65
2022-08-08T06:17:19.461Z,16.95
2022-08-08T06:20:34.761Z,17.17
2022-08-08T06:23:48.963Z,17.27
2022-08-08T06:27:04.740Z,17.53
2022-08-08T06:30:19.752Z,17.45
2022-08-08T06:33:36.954Z,17.50
2022-08-08T06:37:01.989Z,17.31
2022-08-08T06:40:25.864Z,17.97
2022-08-08T06:43:34.705Z,17.76
2022-08-08T06:46:40.293Z,17.78
2022-08-08T06:49:55.520Z,17.98
2022-08-08T06:53:09.495Z,17.87
2022-08-08T06:56:23.254Z,17.59
2022-08-08T06:59:27.106Z,17.54
2022-08-08T07:02:45.190Z,17.51
2022-08-08T07:06:02.268Z,17.34
2022-08-08T07:09:20.775Z,17.55
2022-08-08T07:12:41.323Z,17.42
2022-08-08T07:16:29.033Z,17.65
2022-08-08T07:19:41.916Z,17.80
2022-08-08T07:23:04.639Z,17.81
2022-08-08T07:26:10.627Z,17.84
2022-08-08T07:29:58.737Z,17.39
2022-08-08T07:32:38.436Z,17.74
2022-08-08T07:35:41.912Z,17.85
2022-08-08T07:38:52.859Z,18.51
2022-08-08T07:42:04.369Z,18.49
2022-08-08T07:45:09.108Z,18.81
2022-08-08T07:48:15.175Z,19.23
2022-08-08T07:51:23.378Z,19.04
2022-08-08T07:54:49.123Z,18.33
2022-08-08T07:58:13.616Z,17.85
2022-08-08T08:01:27.068Z,17.87
2022-08-08T08:04:52.311Z,17.38
2022-08-08T08:08:04.437Z,16.90
2022-08-08T08:11:19.845Z,16.11
2022-08-08T08:14:54.393Z,15.19
2022-08-08T08:18:03.337Z,14.07
2022-08-08T08:21:13.278Z,13.84
2022-08-08T08:24:21.128Z,13.67
2022-08-08T08:27:34.577Z,13.58
2022-08-08T08:30:38.495Z,13.36
2022-08-08T08:33:40.795Z,13.30
2022-08-08T08:36:51.389Z,13.17
2022-08-08T08:40:01.106Z,13.46
2022-08-08T08:43:16.882Z,13.61
2022-08-08T08:46:25.698Z,13.80
2022-08-08T08:49:33.946Z,14.02
2022-08-08T08:52:58.571Z,14.06
2022-08-08T08:56:03.210Z,14.29
2022-08-08T08:59:15.103Z,14.46
2022-08-08T09:02:24.203Z,14.71
2022-08-08T09:05:54.377Z,14.80
2022-08-08T09:09:25.958Z,14.62
2022-08-08T09:12:50.594Z,15.03
2022-08-08T09:16:03.561Z,15.11
2022-08-08T09:19:09.678Z,15.17
2022-08-08T09:22:13.562Z,15.44
2022-08-08T09:25:36.013Z,16.18
2022-08-08T09:29:05.248Z,17.14
2022-08-08T09:32:17.097Z,17.69
2022-08-08T09:35:32.178Z,18.24
2022-08-08T09:38:59.003Z,18.39
2022-08-08T09:42:19.984Z,18.59
2022-08-08T09:46:02.954Z,19.14
2022-08-08T09:49:41.852Z,18.72
2022-08-08T09:52:54.161Z,18.96
2022-08-08T09:56:04.527Z,18.85
2022-08-08T09:59:39.757Z,19.02
2022-08-08T10:02:40.062Z,19.00
2022-08-08T10:05:43.110Z,18.49
2022-08-08T10:08:50.831Z,17.98
2022-08-08T10:12:28.148Z,18.42
2022-08-08T10:15:18.107Z,18.07
2022-08-08T10:18:25.445Z,17.93
2022-08-08T10:21:33.382Z,17.73
2022-08-08T10:24:46.535Z,17.53
2022-08-08T10:27:52.226Z,16.89
2022-08-08T10:31:21.467Z,16.92
2022-08-08T10:34:57.065Z,16.47
2022-08-08T10:38:05.494Z,16.74
2022-08-08T10:41:16.269Z,16.76
2022-08-08T10:44:24.492Z,16.32
2022-08-08T10:47:30.614Z,16.49
2022-08-08T10:50:45.154Z,16.72
2022-08-08T10:53:57.146Z,16.95
2022-08-08T10:57:03.648Z,16.98
2022-08-08T11:00:07.371Z,17.02
2022-08-08T11:03:15.916Z,17.17
2022-08-08T11:06:18.041Z,17.36
2022-08-08T11:09:21.849Z,16.92
2022-08-08T11:12:24.796Z,17.08
2022-08-08T11:15:31.467Z,17.22
2022-08-08T11:18:36.924Z,16.97
2022-08-08T11:21:54.217Z,16.91
2022-08-08T11:25:03.637Z,16.77
2022-08-08T11:28:25.557Z,17.00
2022-08-08T11:31:46.788Z,17.07
2022-08-08T11:35:23.192Z,17.33
2022-08-08T11:38:39.340Z,16.99
2022-08-08T11:41:45.060Z,17.06
2022-08-08T11:44:49.114Z,17.32
2022-08-08T11:48:02.914Z,17.63
2022-08-08T11:51:37.902Z,17.66
2022-08-08T11:54:38.350Z,17.57
2022-08-08T11:57:46.771Z,17.30
2022-08-08T12:00:56.329Z,17.38
2022-08-08T12:03:59.774Z,17.32
2022-08-08T12:07:04.727Z,17.31
2022-08-08T12:10:15.009Z,17.39
2022-08-08T12:13:38.504Z,17.19
2022-08-08T12:16:49.428Z,17.31
2022-08-08T12:19:57.367Z,17.57
2022-08-08T12:22:59.629Z,17.70
2022-08-08T12:26:17.191Z,17.79
2022-08-08T12:29:40.787Z,17.58
2022-08-08T12:32:48.089Z,17.74
2022-08-08T12:35:53.035Z,17.80
2022-08-08T12:38:55.393Z,17.69
2022-08-08T12:42:01.855Z,17.68
2022-08-08T12:45:53.731Z,17.47
2022-08-08T12:48:36.871Z,17.49
2022-08-08T12:51:53.957Z,17.57
2022-08-08T12:55:35.644Z,17.21
2022-08-08T12:58:48.546Z,17.05
2022-08-08T13:01:51.941Z,16.64
2022-08-08T13:04:56.080Z,16.62
2022-08-08T13:08:04.436Z,16.57
2022-08-08T13:11:22.396Z,16.53
2022-08-08T13:14:53.014Z,16.02
2022-08-08T13:18:10.489Z,16.27
2022-08-08T13:21:14.915Z,16.22
2022-08-08T13:24:39.484Z,16.17
2022-08-08T13:27:40.261Z,16.25
2022-08-08T13:30:43.804Z,16.47
2022-08-08T13:33:50.231Z,16.38
2022-08-08T13:36:53.845Z,16.25
2022-08-08T13:39:58.355Z,16.19
2022-08-08T13:43:00.434Z,16.33
2022-08-08T13:46:26.726Z,16.52
2022-08-08T13:50:37.105Z,16.27
2022-08-08T13:52:55.092Z,16.41
2022-08-08T13:56:02.449Z,16.20
2022-08-08T13:59:05.274Z,15.96
2022-08-08T14:02:21.235Z,15.94
2022-08-08T14:05:28.366Z,16.23
2022-08-08T14:08:34.693Z,16.13
2022-08-08T14:11:36.880Z,16.03
2022-08-08T14:14:43.219Z,15.97
2022-08-08T14:17:59.001Z,16.07
2022-08-08T14:21:20.888Z,15.87
2022-08-08T14:24:34.222Z,15.75
2022-08-08T14:27:40.381Z,15.51
2022-08-08T14:30:47.579Z,15.55
2022-08-08T14:33:57.169Z,15.68
2022-08-08T14:37:08.280Z,15.75
2022-08-08T14:40:18.033Z,15.88
2022-08-08T14:43:31.287Z,15.93
2022-08-08T14:46:42.348Z,15.86
2022-08-08T14:50:06.891Z,15.74
2022-08-08T14:53:13.445Z,15.83
2022-08-08T14:56:16.125Z,15.72
2022-08-08T14:59:31.749Z,15.37
2022-08-08T15:03:01.560Z,15.51
2022-08-08T15:06:03.093Z,15.65
2022-08-08T15:09:07.236Z,15.72
2022-08-08T15:12:09.292Z,15.71
2022-08-08T15:15:18.823Z,15.56
2022-08-08T15:18:36.856Z,14.96
2022-08-08T15:21:42.860Z,15.07
2022-08-08T15:24:44.897Z,15.09
2022-08-08T15:28:03.578Z,15.02
2022-08-08T15:31:55.955Z,14.92
2022-08-08T15:34:36.598Z,14.59
2022-08-08T15:37:40.885Z,14.61
2022-08-08T15:40:44.320Z,14.80
2022-08-08T15:44:00.642Z,14.70
2022-08-08T15:47:03.446Z,14.74
2022-08-08T15:50:16.795Z,14.59
2022-08-08T15:53:23.763Z,14.74
2022-08-08T15:56:27.903Z,14.46
2022-08-08T16:00:05.177Z,14.38
2022-08-08T16:02:53.321Z,14.38
2022-08-08T16:06:01.837Z,14.44
2022-08-08T16:13:03.133Z,14.38
2022-08-08T16:13:27.254Z,14.42
2022-08-08T16:15:57.163Z,14.39
2022-08-08T16:19:11.096Z,14.44
2022-08-08T16:22:30.340Z,14.34
2022-08-08T16:25:46.641Z,14.38
2022-08-08T16:28:56.632Z,14.14
2022-08-08T16:31:58.490Z,14.04
2022-08-08T16:35:03.322Z,13.88
2022-08-08T16:38:08.680Z,13.86
2022-08-08T16:41:20.043Z,13.91
2022-08-08T16:44:28.168Z,13.91
2022-08-08T16:47:41.690Z,13.96
2022-08-08T16:50:44.656Z,13.87
2022-08-08T16:55:22.771Z,13.71
2022-08-08T16:57:27.914Z,13.66
2022-08-08T17:00:30.151Z,13.58
2022-08-08T17:03:59.804Z,13.61
2022-08-08T17:06:54.051Z,13.53
2022-08-08T17:09:55.994Z,13.58
2022-08-08T17:12:59.863Z,13.47
2022-08-08T17:16:02.238Z,13.60
2022-08-08T17:19:04.523Z,13.61
2022-08-08T17:22:06.423Z,13.65
2022-08-08T17:25:11.829Z,13.74
2022-08-08T17:28:13.824Z,13.71
2022-08-08T17:31:45.126Z,13.76
2022-08-08T17:35:04.438Z,13.80
2022-08-08T17:38:01.520Z,14.11
2022-08-08T17:41:05.792Z,14.64
2022-08-08T17:44:11.163Z,14.82
2022-08-08T17:47:23.262Z,14.57
2022-08-08T17:50:26.562Z,14.07
2022-08-08T17:53:31.231Z,14.00
2022-08-08T17:56:46.503Z,13.90
2022-08-08T17:59:48.365Z,13.89
2022-08-08T18:03:08.610Z,13.85
2022-08-08T18:06:22.142Z,13.77
2022-08-08T18:09:38.046Z,13.86
2022-08-08T18:12:42.819Z,13.82
2022-08-08T18:15:46.481Z,13.80
2022-08-08T18:19:02.513Z,13.70
2022-08-08T18:22:05.956Z,13.66
2022-08-08T18:25:36.984Z,13.60
2022-08-08T18:28:54.691Z,13.52
2022-08-08T18:31:59.332Z,13.44
2022-08-08T18:35:01.088Z,13.30
2022-08-08T18:38:03.918Z,13.27
2022-08-08T18:41:19.494Z,13.22
2022-08-08T18:44:41.942Z,13.09
2022-08-08T18:47:43.743Z,13.12
2022-08-08T18:50:50.122Z,13.13
2022-08-08T18:54:02.744Z,13.09
2022-08-08T18:57:12.772Z,13.07
2022-08-08T19:00:20.870Z,13.05
2022-08-08T19:03:22.958Z,13.05
2022-08-08T19:06:26.423Z,13.04
2022-08-08T19:09:48.750Z,13.03
2022-08-08T19:12:53.548Z,13.00
2022-08-08T19:15:56.160Z,12.99
2022-08-08T19:19:02.472Z,12.95
2022-08-08T19:22:05.155Z,12.98
2022-08-08T19:26:01.848Z,12.98
2022-08-08T19:28:30.265Z,12.98
2022-08-08T19:31:35.506Z,12.98
2022-08-08T19:34:41.463Z,12.99
2022-08-08T19:37:48.545Z,12.99
2022-08-08T19:40:57.756Z,12.94
2022-08-08T19:44:12.635Z,12.97
2022-08-08T19:47:25.525Z,12.96
2022-08-08T19:50:35.776Z,12.95
2022-08-08T19:53:51.755Z,12.94
2022-08-08T19:56:54.419Z,12.90
2022-08-08T19:59:56.154Z,12.83
2022-08-08T20:02:58.247Z,12.77
2022-08-08T20:06:14.054Z,12.71
2022-08-08T20:09:22.705Z,12.63
2022-08-08T20:12:32.787Z,12.58
2022-08-08T20:15:59.956Z,12.51
2022-08-08T20:18:58.715Z,12.42
2022-08-08T20:22:03.147Z,12.40
2022-08-08T20:25:08.482Z,12.32
2022-08-08T20:28:19.943Z,12.24
2022-08-08T20:31:47.095Z,12.20
2022-08-08T20:34:48.362Z,12.18
2022-08-08T20:37:55.599Z,12.15
2022-08-08T20:40:57.630Z,12.11
2022-08-08T20:44:01.037Z,12.05
2022-08-08T20:47:02.894Z,12.05
2022-08-08T20:50:10.043Z,12.04
2022-08-08T20:53:16.730Z,12.04
2022-08-08T20:56:34.972Z,12.01
2022-08-08T20:59:41.308Z,12.04
2022-08-08T21:02:44.075Z,12.03
2022-08-08T21:05:59.079Z,11.99
2022-08-08T21:09:01.012Z,11.96
2022-08-08T21:12:03.628Z,11.96
2022-08-08T21:15:09.638Z,11.94
2022-08-08T21:18:11.987Z,11.87
2022-08-08T21:21:20.621Z,11.87
2022-08-08T21:24:52.175Z,11.84
2022-08-08T21:28:14.415Z,11.83
2022-08-08T21:31:22.520Z,11.80
2022-08-08T21:34:25.105Z,11.78
2022-08-08T21:37:54.108Z,11.73
2022-08-08T21:40:56.147Z,11.70
2022-08-08T21:43:58.802Z,11.68
2022-08-08T21:48:20.134Z,11.63
2022-08-08T21:50:23.625Z,11.60
2022-08-08T21:54:32.272Z,11.55
2022-08-08T21:56:48.926Z,11.51
2022-08-08T22:00:02.518Z,11.50
2022-08-08T22:03:17.924Z,11.48
2022-08-08T22:06:31.189Z,11.46
2022-08-08T22:09:40.993Z,11.47
2022-08-08T22:12:45.557Z,11.44
2022-08-08T22:15:58.780Z,11.43
2022-08-08T22:19:08.933Z,11.42
2022-08-08T22:22:19.125Z,11.38
2022-08-08T22:25:25.058Z,11.38
2022-08-08T22:29:13.856Z,11.38
2022-08-08T22:31:58.526Z,11.38
2022-08-08T22:35:04.078Z,11.36
2022-08-08T22:38:05.990Z,11.32
2022-08-08T22:41:15.978Z,11.30
2022-08-08T22:44:23.073Z,11.26
2022-08-08T22:47:37.600Z,11.24
2022-08-08T22:50:39.821Z,11.22
2022-08-08T22:54:30.924Z,11.13
2022-08-08T22:57:08.642Z,11.09
2022-08-08T23:00:13.914Z,11.06
2022-08-08T23:03:18.308Z,11.05
2022-08-08T23:06:24.275Z,11.04
2022-08-08T23:09:30.593Z,11.02
2022-08-08T23:12:40.334Z,11.00
2022-08-08T23:16:40.567Z,11.01
2022-08-08T23:19:04.460Z,10.99
2022-08-08T23:22:10.962Z,11.00
2022-08-08T23:25:12.780Z,10.99
2022-08-08T23:28:20.202Z,10.98
2022-08-08T23:31:22.630Z,10.96
2022-08-08T23:34:24.709Z,10.96
2022-08-08T23:38:00.748Z,10.91
2022-08-08T23:40:49.184Z,10.91
2022-08-08T23:43:56.504Z,10.91
2022-08-08T23:49:00.078Z,10.90
2022-08-08T23:50:30.546Z,10.90
2022-08-08T23:54:05.562Z,10.91
2022-08-08T23:56:57.595Z,10.90
